createdAt,value
2019-02-17T00:06:35.064Z,1.04
2019-02-17T00:11:46.353Z,1.09
2019-02-17T00:14:31.109Z,1.12
2019-02-17T00:16:46.031Z,1.14
2019-02-17T00:19:14.732Z,1.08
2019-02-17T00:21:43.562Z,0.94
2019-02-17T00:24:12.454Z,0.98
2019-02-17T00:26:41.098Z,1.04
2019-02-17T00:29:09.718Z,0.92
2019-02-17T00:31:38.328Z,0.92
2019-02-17T00:34:06.950Z,0.94
2019-02-17T00:36:35.554Z,0.91
2019-02-17T00:39:05.458Z,0.95
2019-02-17T00:41:34.163Z,0.96
2019-02-17T00:44:02.742Z,0.96
2019-02-17T00:46:31.431Z,0.79
2019-02-17T00:49:00.149Z,0.82
2019-02-17T00:51:28.804Z,0.87
2019-02-17T00:53:57.508Z,0.76
2019-02-17T00:56:26.207Z,0.81
2019-02-17T00:58:54.829Z,0.79
2019-02-17T01:01:23.475Z,0.73
2019-02-17T01:03:52.084Z,0.70
2019-02-17T01:06:20.705Z,0.62
2019-02-17T01:08:49.366Z,0.54
2019-02-17T01:11:18.013Z,0.45
2019-02-17T01:13:46.687Z,0.48
2019-02-17T01:16:15.331Z,0.42
2019-02-17T01:18:43.955Z,0.50
2019-02-17T01:21:12.577Z,0.51
2019-02-17T01:23:41.186Z,0.62
2019-02-17T01:26:09.835Z,0.64
2019-02-17T01:28:38.457Z,0.59
2019-02-17T01:31:08.482Z,0.53
2019-02-17T01:33:37.432Z,0.44
2019-02-17T01:36:06.061Z,0.43
2019-02-17T01:38:34.677Z,0.57
2019-02-17T01:43:37.750Z,0.54
2019-02-17T01:46:06.388Z,0.51
2019-02-17T01:48:35.002Z,0.50
2019-02-17T01:51:03.619Z,0.46
2019-02-17T01:53:51.278Z,0.44
2019-02-17T01:56:19.888Z,0.38
2019-02-17T01:58:48.531Z,0.41
2019-02-17T02:01:17.331Z,0.43
2019-02-17T02:03:47.493Z,0.32
2019-02-17T02:06:16.121Z,0.29
2019-02-17T02:08:44.764Z,0.27
2019-02-17T02:11:13.391Z,0.26
2019-02-17T02:13:42.040Z,0.24
2019-02-17T02:16:10.679Z,0.34
2019-02-17T02:18:39.349Z,0.42
2019-02-17T02:21:07.989Z,0.42
2019-02-17T02:23:36.624Z,0.32
2019-02-17T02:26:05.245Z,0.34
2019-02-17T02:28:33.886Z,0.29
2019-02-17T02:31:02.493Z,0.36
2019-02-17T02:33:31.129Z,0.32
2019-02-17T02:35:59.756Z,0.11
2019-02-17T02:38:28.390Z,0.06
2019-02-17T02:40:57.024Z,0.04
2019-02-17T02:43:25.649Z,0.14
2019-02-17T02:45:54.309Z,0.30
2019-02-17T02:48:22.921Z,0.39
2019-02-17T02:50:53.126Z,0.38
2019-02-17T02:53:21.918Z,0.46
2019-02-17T02:55:50.567Z,0.44
2019-02-17T02:58:19.183Z,0.12
2019-02-17T03:00:47.804Z,-0.13
2019-02-17T03:03:16.488Z,0.05
2019-02-17T03:06:04.191Z,0.16
2019-02-17T03:08:32.804Z,0.06
2019-02-17T03:11:01.426Z,-0.16
2019-02-17T03:13:30.138Z,-0.20
2019-02-17T03:15:58.774Z,-0.06
2019-02-17T03:18:27.387Z,0.05
2019-02-17T03:20:56.037Z,0.14
2019-02-17T03:23:24.693Z,0.21
2019-02-17T03:25:53.332Z,0.21
2019-02-17T03:28:21.927Z,0.19
2019-02-17T03:30:50.564Z,0.15
2019-02-17T03:33:19.214Z,0.05
2019-02-17T03:35:47.863Z,0.02
2019-02-17T03:38:16.485Z,-0.09
2019-02-17T03:40:45.150Z,-0.22
2019-02-17T03:43:13.850Z,-0.25
2019-02-17T03:45:42.502Z,-0.34
2019-02-17T03:48:11.135Z,-0.21
2019-02-17T03:50:39.750Z,-0.06
2019-02-17T03:53:08.396Z,0.00
2019-02-17T03:55:37.007Z,0.04
2019-02-17T03:58:05.726Z,-0.20
2019-02-17T04:00:34.345Z,-0.28
2019-02-17T04:03:02.979Z,-0.28
2019-02-17T04:05:31.617Z,-0.36
2019-02-17T04:08:00.259Z,-0.30
2019-02-17T04:10:28.889Z,-0.14
2019-02-17T04:12:57.518Z,-0.28
2019-02-17T04:15:26.210Z,-0.33
2019-02-17T04:17:54.854Z,-0.49
2019-02-17T04:20:23.488Z,-0.63
2019-02-17T04:22:52.114Z,-0.60
2019-02-17T04:25:20.738Z,-0.56
2019-02-17T04:27:49.389Z,-0.48
2019-02-17T04:30:28.581Z,-0.48
2019-02-17T04:32:48.356Z,-0.46
2019-02-17T04:35:16.988Z,-0.56
2019-02-17T04:37:45.632Z,-0.44
2019-02-17T04:40:14.249Z,-0.48
2019-02-17T04:42:42.909Z,-0.60
2019-02-17T04:45:11.544Z,-0.53
2019-02-17T04:47:40.245Z,-0.44
2019-02-17T04:50:08.970Z,-0.48
2019-02-17T04:52:37.676Z,-0.51
2019-02-17T04:55:06.733Z,-0.61
2019-02-17T04:57:35.354Z,-0.48
2019-02-17T05:00:04.117Z,-0.49
2019-02-17T05:02:32.731Z,-0.51
2019-02-17T05:05:01.435Z,-0.64
2019-02-17T05:07:30.085Z,-0.71
2019-02-17T05:09:58.719Z,-0.63
2019-02-17T05:12:27.338Z,-0.65
2019-02-17T05:14:55.973Z,-0.68
2019-02-17T05:17:24.616Z,-0.56
2019-02-17T05:19:53.278Z,-0.48
2019-02-17T05:22:21.901Z,-0.46
2019-02-17T05:24:50.543Z,-0.44
2019-02-17T05:27:19.170Z,-0.51
2019-02-17T05:29:47.809Z,-0.62
2019-02-17T05:32:16.435Z,-0.67
2019-02-17T05:34:45.057Z,-0.60
2019-02-17T05:37:13.699Z,-0.71
2019-02-17T05:39:42.358Z,-0.71
2019-02-17T05:42:10.993Z,-0.71
2019-02-17T05:44:39.633Z,-0.75
2019-02-17T05:47:08.258Z,-0.63
2019-02-17T05:49:36.878Z,-0.60
2019-02-17T05:52:05.515Z,-0.59
2019-02-17T05:54:34.194Z,-0.73
2019-02-17T05:57:02.955Z,-0.83
2019-02-17T05:59:31.675Z,-0.91
2019-02-17T06:02:00.290Z,-0.82
2019-02-17T06:04:28.908Z,-0.73
2019-02-17T06:06:57.548Z,-0.76
2019-02-17T06:09:26.161Z,-0.89
2019-02-17T06:11:54.816Z,-0.94
2019-02-17T06:14:23.439Z,-1.01
2019-02-17T06:16:52.087Z,-1.01
2019-02-17T06:19:20.804Z,-0.93
2019-02-17T06:21:49.386Z,-0.84
2019-02-17T06:24:18.011Z,-0.92
2019-02-17T06:26:46.699Z,-0.89
2019-02-17T06:29:15.308Z,-0.92
2019-02-17T06:31:43.944Z,-0.99
2019-02-17T06:34:12.614Z,-0.99
2019-02-17T06:36:41.375Z,-0.83
2019-02-17T06:39:09.994Z,-0.95
2019-02-17T06:41:38.640Z,-1.00
2019-02-17T06:44:07.265Z,-0.97
2019-02-17T06:46:40.500Z,-0.93
2019-02-17T06:49:09.144Z,-0.88
2019-02-17T06:51:37.779Z,-0.79
2019-02-17T06:54:06.472Z,-0.81
2019-02-17T06:56:54.101Z,-0.83
2019-02-17T06:59:22.727Z,-0.85
2019-02-17T07:01:51.358Z,-0.77
2019-02-17T07:07:09.472Z,-0.73
2019-02-17T07:09:38.084Z,-0.72
2019-02-17T07:12:06.749Z,-0.61
2019-02-17T07:14:35.356Z,-0.61
2019-02-17T07:17:04.040Z,-0.58
2019-02-17T07:19:32.689Z,-0.69
2019-02-17T07:22:01.340Z,-0.67
2019-02-17T07:24:29.966Z,-0.62
2019-02-17T07:26:58.593Z,-0.53
2019-02-17T07:29:27.219Z,-0.48
2019-02-17T07:31:55.889Z,-0.48
2019-02-17T07:34:24.506Z,-0.45
2019-02-17T07:36:53.133Z,-0.44
2019-02-17T07:39:21.808Z,-0.30
2019-02-17T07:41:50.451Z,-0.26
2019-02-17T07:44:19.112Z,-0.18
2019-02-17T07:46:47.768Z,-0.20
2019-02-17T07:49:16.701Z,-0.16
2019-02-17T07:51:45.396Z,-0.06
2019-02-17T07:57:37.373Z,0.14
2019-02-17T08:00:08.630Z,0.25
2019-02-17T08:02:38.019Z,0.31
2019-02-17T08:05:06.762Z,0.38
2019-02-17T08:07:35.424Z,0.45
2019-02-17T08:10:04.453Z,0.46
2019-02-17T08:12:33.116Z,0.55
2019-02-17T08:15:01.773Z,0.59
2019-02-17T08:17:30.408Z,0.63
2019-02-17T08:19:59.070Z,0.68
2019-02-17T08:22:27.735Z,0.78
2019-02-17T08:24:56.446Z,0.86
2019-02-17T08:27:25.085Z,0.92
2019-02-17T08:29:53.880Z,0.99
2019-02-17T08:32:22.876Z,1.08
2019-02-17T08:34:53.163Z,1.23
2019-02-17T08:37:21.917Z,1.38
2019-02-17T08:39:50.796Z,1.52
2019-02-17T08:42:19.433Z,1.76
2019-02-17T08:44:48.052Z,1.82
2019-02-17T08:47:16.713Z,1.85
2019-02-17T08:49:45.336Z,1.93
2019-02-17T08:52:14.001Z,2.04
2019-02-17T08:54:42.665Z,2.17
2019-02-17T08:57:11.366Z,2.25
2019-02-17T08:59:39.978Z,2.33
2019-02-17T09:02:08.605Z,2.43
2019-02-17T09:04:37.218Z,2.51
2019-02-17T09:07:06.530Z,2.57
2019-02-17T09:09:36.191Z,2.68
2019-02-17T09:12:04.917Z,2.76
2019-02-17T09:14:33.525Z,2.83
2019-02-17T09:17:02.221Z,2.84
2019-02-17T09:19:30.830Z,2.91
2019-02-17T09:21:59.489Z,3.04
2019-02-17T09:24:28.109Z,3.14
2019-02-17T09:26:56.793Z,3.27
2019-02-17T09:29:25.430Z,3.34
2019-02-17T09:31:54.069Z,3.43
2019-02-17T09:34:22.727Z,3.55
2019-02-17T09:36:51.504Z,3.68
2019-02-17T09:39:20.152Z,3.74
2019-02-17T09:41:48.840Z,3.79
2019-02-17T09:44:17.456Z,3.91
2019-02-17T09:46:46.088Z,4.03
2019-02-17T09:49:14.727Z,4.10
2019-02-17T09:51:43.435Z,4.25
2019-02-17T09:54:12.055Z,4.34
2019-02-17T09:56:40.678Z,4.48
2019-02-17T09:59:09.351Z,4.58
2019-02-17T10:01:38.096Z,4.63
2019-02-17T10:04:06.729Z,4.70
2019-02-17T10:06:35.491Z,4.80
2019-02-17T10:09:05.354Z,4.89
2019-02-17T10:11:33.976Z,5.01
2019-02-17T10:14:02.931Z,5.18
2019-02-17T10:16:31.817Z,5.30
2019-02-17T10:19:00.577Z,5.35
2019-02-17T10:21:29.262Z,5.43
2019-02-17T10:23:57.898Z,5.47
2019-02-17T10:26:26.626Z,5.65
2019-02-17T10:28:55.281Z,5.72
2019-02-17T10:34:12.525Z,5.93
2019-02-17T10:36:41.308Z,6.10
2019-02-17T10:39:10.018Z,6.22
2019-02-17T10:41:38.647Z,6.52
2019-02-17T10:44:07.287Z,6.51
2019-02-17T10:46:35.904Z,6.57
2019-02-17T10:49:04.610Z,6.71
2019-02-17T10:51:33.276Z,6.77
2019-02-17T10:54:01.907Z,6.80
2019-02-17T10:56:30.601Z,6.93
2019-02-17T10:58:59.258Z,7.11
2019-02-17T11:01:27.945Z,7.24
2019-02-17T11:04:40.197Z,7.27
2019-02-17T11:07:08.810Z,7.32
2019-02-17T11:09:37.439Z,7.42
2019-02-17T11:12:06.149Z,7.47
2019-02-17T11:14:34.801Z,7.58
2019-02-17T11:17:03.454Z,7.76
2019-02-17T11:19:32.100Z,8.08
2019-02-17T11:22:00.712Z,8.16
2019-02-17T11:24:29.342Z,8.20
2019-02-17T11:26:57.959Z,8.26
2019-02-17T11:29:26.624Z,8.34
2019-02-17T11:31:55.276Z,8.34
2019-02-17T11:34:23.972Z,8.40
2019-02-17T11:36:52.597Z,8.54
2019-02-17T11:39:21.557Z,8.69
2019-02-17T11:41:50.253Z,8.78
2019-02-17T11:44:19.011Z,8.98
2019-02-17T11:46:47.629Z,9.10
2019-02-17T11:49:16.263Z,9.21
2019-02-17T11:51:44.893Z,9.35
2019-02-17T11:54:13.602Z,9.45
2019-02-17T11:56:42.313Z,9.52
2019-02-17T11:59:10.936Z,9.53
2019-02-17T12:01:39.643Z,9.76
2019-02-17T12:04:08.373Z,9.91
2019-02-17T12:06:37.011Z,10.12
2019-02-17T12:09:45.770Z,10.17
2019-02-17T12:12:14.914Z,10.40
2019-02-17T12:14:43.545Z,10.31
2019-02-17T12:17:12.219Z,10.32
2019-02-17T12:19:40.854Z,10.34
2019-02-17T12:22:28.690Z,10.54
2019-02-17T12:25:16.338Z,10.51
2019-02-17T12:28:03.999Z,10.62
2019-02-17T12:30:32.654Z,10.69
2019-02-17T12:33:01.275Z,10.76
2019-02-17T12:35:29.907Z,10.77
2019-02-17T12:37:58.521Z,10.85
2019-02-17T12:40:27.165Z,10.84
2019-02-17T12:42:55.814Z,10.93
2019-02-17T12:45:24.472Z,10.93
2019-02-17T12:47:57.911Z,10.94
2019-02-17T12:50:23.593Z,10.97
2019-02-17T12:52:52.213Z,11.03
2019-02-17T12:55:20.915Z,11.11
2019-02-17T12:57:49.533Z,11.17
2019-02-17T13:00:18.491Z,11.32
2019-02-17T13:02:47.158Z,11.43
2019-02-17T13:05:15.844Z,11.38
2019-02-17T13:07:44.482Z,11.37
2019-02-17T13:10:13.443Z,11.38
2019-02-17T13:12:42.361Z,11.47
2019-02-17T13:15:11.525Z,11.56
2019-02-17T13:17:40.124Z,11.58
2019-02-17T13:20:10.472Z,11.58
2019-02-17T13:22:58.164Z,11.59
2019-02-17T13:25:26.783Z,11.61
2019-02-17T13:27:55.415Z,11.85
2019-02-17T13:30:24.181Z,11.80
2019-02-17T13:32:52.889Z,11.88
2019-02-17T13:35:21.640Z,11.78
2019-02-17T13:37:50.311Z,11.81
2019-02-17T13:40:19.024Z,11.78
2019-02-17T13:42:47.884Z,11.99
2019-02-17T13:45:16.683Z,12.04
2019-02-17T13:47:45.725Z,12.16
2019-02-17T13:50:14.450Z,12.20
2019-02-17T13:52:43.209Z,12.20
2019-02-17T13:55:11.940Z,12.26
2019-02-17T13:57:40.694Z,12.44
2019-02-17T14:00:28.567Z,12.58
2019-02-17T14:02:57.200Z,12.59
2019-02-17T14:05:25.986Z,12.54
2019-02-17T14:07:54.624Z,12.56
2019-02-17T14:10:23.263Z,12.59
2019-02-17T14:12:51.891Z,12.68
2019-02-17T14:15:20.520Z,12.78
2019-02-17T14:17:49.251Z,12.78
2019-02-17T14:20:17.935Z,12.75
2019-02-17T14:22:46.577Z,12.89
2019-02-17T14:25:15.271Z,12.95
2019-02-17T14:27:43.971Z,12.94
2019-02-17T14:30:12.819Z,13.02
2019-02-17T14:32:41.527Z,13.03
2019-02-17T14:35:10.271Z,12.99
2019-02-17T14:37:38.985Z,13.05
2019-02-17T14:40:26.844Z,13.07
2019-02-17T14:42:55.572Z,13.12
2019-02-17T14:45:24.268Z,13.15
2019-02-17T14:47:52.927Z,13.17
2019-02-17T14:50:21.590Z,13.23
2019-02-17T14:52:50.237Z,13.30
2019-02-17T14:55:18.849Z,13.21
2019-02-17T14:57:47.491Z,13.17
2019-02-17T15:00:16.198Z,13.19
2019-02-17T15:02:44.906Z,13.15
2019-02-17T15:05:13.686Z,13.15
2019-02-17T15:07:42.389Z,13.12
2019-02-17T15:10:11.098Z,13.16
2019-02-17T15:12:39.747Z,13.16
2019-02-17T15:15:09.182Z,13.11
2019-02-17T15:17:37.803Z,13.16
2019-02-17T15:20:08.565Z,13.11
2019-02-17T15:22:37.188Z,13.07
2019-02-17T15:25:07.494Z,13.08
2019-02-17T15:27:37.179Z,13.09
2019-02-17T15:30:06.870Z,13.08
2019-02-17T15:32:35.484Z,13.16
2019-02-17T15:35:04.477Z,13.09
2019-02-17T15:37:33.173Z,13.02
2019-02-17T15:40:09.760Z,12.94
2019-02-17T15:42:38.398Z,12.96
2019-02-17T15:45:08.414Z,12.87
2019-02-17T15:47:37.050Z,12.87
2019-02-17T15:50:06.524Z,12.87
2019-02-17T15:52:35.139Z,12.86
2019-02-17T15:55:03.875Z,12.88
2019-02-17T15:57:32.502Z,13.01
2019-02-17T16:00:01.195Z,13.00
2019-02-17T16:02:29.821Z,12.86
2019-02-17T16:04:58.456Z,12.84
2019-02-17T16:07:27.074Z,12.78
2019-02-17T16:09:55.833Z,12.72
2019-02-17T16:12:24.509Z,12.77
2019-02-17T16:14:53.208Z,12.71
2019-02-17T16:17:21.903Z,12.79
2019-02-17T16:19:50.591Z,12.62
2019-02-17T16:22:19.220Z,12.66
2019-02-17T16:24:47.843Z,12.58
2019-02-17T16:27:16.513Z,12.38
2019-02-17T16:29:45.149Z,12.16
2019-02-17T16:32:13.830Z,11.96
2019-02-17T16:34:42.576Z,11.80
2019-02-17T16:37:11.193Z,11.65
2019-02-17T16:39:39.824Z,11.52
2019-02-17T16:42:08.474Z,11.33
2019-02-17T16:44:37.286Z,11.18
2019-02-17T16:47:05.908Z,11.02
2019-02-17T16:49:34.552Z,10.86
2019-02-17T16:52:03.172Z,10.69
2019-02-17T16:54:31.821Z,10.56
2019-02-17T16:57:00.461Z,10.37
2019-02-17T16:59:29.094Z,10.19
2019-02-17T17:01:57.735Z,10.11
2019-02-17T17:04:26.360Z,9.96
2019-02-17T17:06:55.081Z,9.82
2019-02-17T17:09:23.709Z,9.70
2019-02-17T17:11:52.329Z,9.55
2019-02-17T17:14:21.052Z,9.45
2019-02-17T17:16:49.658Z,9.30
2019-02-17T17:19:18.285Z,9.18
2019-02-17T17:21:47.040Z,9.09
2019-02-17T17:27:23.652Z,8.85
2019-02-17T17:33:22.708Z,8.61
2019-02-17T17:35:51.353Z,8.43
2019-02-17T17:38:20.497Z,8.34
2019-02-17T17:40:49.353Z,8.29
2019-02-17T17:43:18.361Z,8.18
2019-02-17T17:51:42.304Z,7.78
2019-02-17T17:54:11.095Z,7.71
2019-02-17T17:56:59.116Z,7.69
2019-02-17T17:59:27.900Z,7.65
2019-02-17T18:01:56.765Z,7.55
2019-02-17T18:04:25.476Z,7.47
2019-02-17T18:06:54.234Z,7.33
2019-02-17T18:09:23.051Z,7.30
2019-02-17T18:11:51.764Z,7.20
2019-02-17T18:14:20.608Z,7.12
2019-02-17T18:16:49.313Z,7.10
2019-02-17T18:19:18.136Z,7.00
2019-02-17T18:21:49.573Z,6.96
2019-02-17T18:24:18.554Z,6.75
2019-02-17T18:29:22.867Z,6.54
2019-02-17T18:31:51.593Z,6.51
2019-02-17T18:37:14.554Z,6.41
2019-02-17T18:39:43.301Z,6.29
2019-02-17T18:42:12.124Z,6.26
2019-02-17T18:44:41.068Z,6.16
2019-02-17T18:47:10.014Z,6.08
2019-02-17T18:49:39.128Z,6.06
2019-02-17T18:52:08.210Z,6.02
2019-02-17T18:54:39.354Z,6.02
2019-02-17T18:57:08.784Z,5.95
2019-02-17T18:59:37.612Z,5.85
2019-02-17T19:02:47.183Z,5.88
2019-02-17T19:05:15.955Z,5.87
2019-02-17T19:07:44.663Z,5.78
2019-02-17T19:10:13.519Z,5.74
2019-02-17T19:12:42.302Z,5.62
2019-02-17T19:15:12.413Z,5.65
2019-02-17T19:17:41.123Z,5.63
2019-02-17T19:20:12.025Z,5.62
2019-02-17T19:22:40.811Z,5.50
2019-02-17T19:25:09.758Z,5.39
2019-02-17T19:27:38.605Z,5.29
2019-02-17T19:30:26.589Z,5.20
2019-02-17T19:32:55.463Z,4.98
2019-02-17T19:35:24.222Z,5.16
2019-02-17T19:38:32.896Z,4.94
2019-02-17T19:44:21.313Z,4.79
2019-02-17T19:49:52.642Z,4.66
2019-02-17T19:52:40.854Z,4.71
2019-02-17T19:55:10.114Z,4.67
2019-02-17T19:57:38.825Z,4.61
2019-02-17T20:00:10.767Z,4.49
2019-02-17T20:05:52.066Z,4.28
2019-02-17T20:08:17.537Z,4.24
2019-02-17T20:10:48.332Z,4.41
2019-02-17T20:13:19.180Z,4.47
2019-02-17T20:15:47.982Z,4.48
2019-02-17T20:18:16.764Z,4.44
2019-02-17T20:20:45.518Z,4.37
2019-02-17T20:23:14.326Z,3.95
2019-02-17T20:25:43.129Z,4.09
2019-02-17T20:31:21.980Z,4.04
2019-02-17T20:33:50.567Z,3.81
2019-02-17T20:36:20.069Z,3.74
2019-02-17T20:38:48.729Z,3.89
2019-02-17T20:41:17.566Z,3.84
2019-02-17T20:43:46.285Z,3.81
2019-02-17T20:46:15.033Z,3.77
2019-02-17T20:49:13.177Z,3.81
2019-02-17T20:54:37.916Z,3.71
2019-02-17T20:57:07.521Z,3.64
2019-02-17T21:00:32.131Z,3.46
2019-02-17T21:02:47.205Z,3.42
2019-02-17T21:10:45.690Z,2.93
2019-02-17T21:13:15.031Z,2.97
2019-02-17T21:15:43.827Z,3.00
2019-02-17T21:18:31.707Z,3.06
2019-02-17T21:21:00.484Z,3.19
2019-02-17T21:23:29.242Z,3.25
2019-02-17T21:25:57.955Z,3.28
2019-02-17T21:28:26.817Z,3.25
2019-02-17T21:31:14.755Z,3.15
2019-02-17T21:33:43.998Z,2.79
2019-02-17T21:36:22.556Z,2.79
2019-02-17T21:38:43.235Z,2.79
2019-02-17T21:43:46.542Z,2.94
2019-02-17T21:46:15.237Z,2.95
2019-02-17T21:48:43.944Z,2.93
2019-02-17T21:51:12.699Z,2.97
2019-02-17T21:53:41.446Z,2.79
2019-02-17T21:56:10.190Z,2.74
2019-02-17T21:58:38.988Z,2.78
2019-02-17T22:03:55.466Z,2.28
2019-02-17T22:06:33.271Z,2.42
2019-02-17T22:08:54.697Z,2.20
2019-02-17T22:11:23.492Z,2.20
2019-02-17T22:13:52.239Z,2.22
2019-02-17T22:16:20.973Z,2.14
2019-02-17T22:18:49.781Z,2.25
2019-02-17T22:21:20.681Z,2.28
2019-02-17T22:24:08.524Z,2.27
2019-02-17T22:26:37.260Z,2.09
2019-02-17T22:29:06.082Z,2.14
2019-02-17T22:31:53.763Z,2.12
2019-02-17T22:34:22.894Z,2.13
2019-02-17T22:39:43.228Z,1.87
2019-02-17T22:42:11.972Z,1.74
2019-02-17T22:44:40.711Z,1.66
2019-02-17T22:47:09.540Z,1.80
2019-02-17T22:49:38.333Z,1.79
2019-02-17T22:52:07.096Z,1.87
2019-02-17T22:54:37.929Z,1.95
2019-02-17T22:57:07.464Z,1.95
2019-02-17T22:59:36.158Z,1.91
2019-02-17T23:07:50.976Z,1.69
2019-02-17T23:12:54.839Z,1.47
2019-02-17T23:15:23.645Z,1.52
2019-02-17T23:17:52.690Z,1.36
2019-02-17T23:20:24.471Z,1.17
2019-02-17T23:22:53.218Z,1.08
2019-02-17T23:25:24.460Z,1.28
2019-02-17T23:27:53.169Z,1.31
2019-02-17T23:30:21.874Z,1.23
2019-02-17T23:32:50.636Z,1.24
2019-02-17T23:35:19.335Z,1.12
2019-02-17T23:37:48.448Z,1.06
2019-02-17T23:40:17.232Z,1.12
2019-02-17T23:42:53.737Z,1.11
2019-02-17T23:45:22.564Z,0.98
2019-02-17T23:47:51.322Z,0.99
2019-02-17T23:50:20.116Z,1.08
2019-02-17T23:52:48.881Z,0.94
2019-02-17T23:55:17.585Z,1.01
2019-02-17T23:57:46.255Z,0.99
